Texarkana Regional Webb Field
KTXK : rendu visible

Aérodrome :











RETROUVEZ-NOUS SUR...

 
LOGIN :

S'inscrire | Disclaimer

   EN    FR    IT 

 









Légende :    VFR   VFR Marginal   IFR   IFR Intensif   IFR Très Intensif
Visi : 
Plafond : 
>= 8 km
>= 3000ft
5 à 8 km
1000 à 3000 ft
1500m à 5 km
500 à 1000 ft
800 à 1500m
200 à 500 ft
< 800m
< 200 ft
Symboles :   Orages  Brouillard  Fortes neiges  Fortes précipitations  Vent > 20 kt






- Altitude de l'aérodrome : 390 ft
- Code IATA : TXK


KTXK - Texarkana Regional Webb Field

DERNIER METAR :
  • 100653Z AUTO 34007KT 10SM -RA OVC080 08/03 A3004 RMK AO2 RAB17 SLP170 P0000 T00830028

METARs EXPIRÉS :
  • 100553Z AUTO 34008G14KT 10SM OVC085 10/04 A3000 RMK AO2 SLP157 T01000044 10183 20100 402280100 51018
  • 100453Z AUTO 34011G17KT 10SM OVC090 11/05 A3000 RMK AO2 SLP155 T01110050

TAF KTXK
Valide du 10 à 06h jusqu'au 11 à 06h UTC


100528Z 1006/1106 34011KT P6SM OVC100
FM100800 36011KT 6SM -SHRA OVC040
FM101400 01008KT 4SM SHRA BKN030 OVC050
FM101900 03006KT 6SM -SHRA SCT015 OVC040
FM102300 03005KT P6SM FEW025 SCT050



MET'MAP, la Météo Aéronautique d'un coup d'oeil ! - Copyright ORBIFLY Décembre 2007 - Disclaimer

ORBIFLY MET'MAP TEAM :

Programmation & Développement : Alexandra Zaïnal
Sur une idée originale de : Baudouin d'Aumeries
Assistance à la programmation : Marc-Olivier Méhu
Soutien technique & logistique : Manuel Goepfert

Contact : metmap@orbifly.com




SOURCES & CREDITS :

   NOAA       Earth
Advisory